createdAt,value
2018-05-27T00:00:28.583Z,19.50
2018-05-27T00:02:55.433Z,19.40
2018-05-27T00:05:22.803Z,19.00
2018-05-27T00:07:50.312Z,19.40
2018-05-27T00:10:17.395Z,19.50
2018-05-27T00:12:43.753Z,19.40
2018-05-27T00:15:10.159Z,19.40
2018-05-27T00:17:36.525Z,19.40
2018-05-27T00:20:02.961Z,19.40
2018-05-27T00:22:29.326Z,19.40
2018-05-27T00:24:55.707Z,19.30
2018-05-27T00:27:22.089Z,19.30
2018-05-27T00:29:48.509Z,19.20
2018-05-27T00:32:15.057Z,19.20
2018-05-27T00:34:42.146Z,19.30
2018-05-27T00:37:08.494Z,19.20
2018-05-27T00:39:34.995Z,19.20
2018-05-27T00:42:01.410Z,19.30
2018-05-27T00:44:28.140Z,19.30
2018-05-27T00:46:54.616Z,19.30
2018-05-27T00:49:21.483Z,19.10
2018-05-27T00:51:47.993Z,19.30
2018-05-27T00:54:14.361Z,19.30
2018-05-27T00:56:40.793Z,19.10
2018-05-27T00:59:07.190Z,19.10
2018-05-27T01:01:33.617Z,19.10
2018-05-27T01:04:00.063Z,19.00
2018-05-27T01:06:27.971Z,19.00
2018-05-27T01:08:56.706Z,19.10
2018-05-27T01:11:23.304Z,19.00
2018-05-27T01:13:50.458Z,19.10
2018-05-27T01:16:16.900Z,19.10
2018-05-27T01:18:43.299Z,19.10
2018-05-27T01:21:09.700Z,19.10
2018-05-27T01:23:36.142Z,19.00
2018-05-27T01:26:02.567Z,19.00
2018-05-27T01:28:29.082Z,19.00
2018-05-27T01:30:56.828Z,19.00
2018-05-27T01:33:23.201Z,19.00
2018-05-27T01:35:49.788Z,18.90
2018-05-27T01:38:16.129Z,19.00
2018-05-27T01:40:42.600Z,19.00
2018-05-27T01:43:08.982Z,19.00
2018-05-27T01:45:36.111Z,19.00
2018-05-27T01:48:02.586Z,19.00
2018-05-27T01:50:28.953Z,18.90
2018-05-27T01:52:55.338Z,18.60
2018-05-27T01:55:21.676Z,18.80
2018-05-27T01:57:48.072Z,18.90
2018-05-27T02:00:14.444Z,18.90
2018-05-27T02:02:40.869Z,18.70
2018-05-27T02:05:07.366Z,18.70
2018-05-27T02:07:33.809Z,18.60
2018-05-27T02:10:00.993Z,18.60
2018-05-27T02:12:27.387Z,18.60
2018-05-27T02:14:54.519Z,18.60
2018-05-27T02:17:20.997Z,18.60
2018-05-27T02:19:47.380Z,18.60
2018-05-27T02:22:13.764Z,18.60
2018-05-27T02:24:40.146Z,18.60
2018-05-27T02:27:06.521Z,18.50
2018-05-27T02:29:32.891Z,16.10
2018-05-27T02:31:59.351Z,18.40
2018-05-27T02:34:26.748Z,18.60
2018-05-27T02:36:53.111Z,18.60
2018-05-27T02:39:19.461Z,18.60
2018-05-27T02:41:45.857Z,18.10
2018-05-27T02:44:12.238Z,18.40
2018-05-27T02:46:38.838Z,18.60
2018-05-27T02:49:05.198Z,18.30
2018-05-27T02:51:31.566Z,18.30
2018-05-27T02:53:57.960Z,18.30
2018-05-27T02:56:31.275Z,18.30
2018-05-27T02:58:57.685Z,18.40
2018-05-27T03:01:24.081Z,18.30
2018-05-27T03:03:50.461Z,18.50
2018-05-27T03:06:16.852Z,18.30
2018-05-27T03:08:43.357Z,18.30
2018-05-27T03:11:10.104Z,18.20
2018-05-27T03:13:36.490Z,18.20
2018-05-27T03:16:02.910Z,18.20
2018-05-27T03:18:29.323Z,18.30
2018-05-27T03:20:55.746Z,18.30
2018-05-27T03:23:22.118Z,18.30
2018-05-27T03:25:49.619Z,18.30
2018-05-27T03:28:15.978Z,18.30
2018-05-27T03:30:42.355Z,18.40
2018-05-27T03:33:08.816Z,18.30
2018-05-27T03:35:35.249Z,18.30
2018-05-27T03:38:01.713Z,18.20
2018-05-27T03:40:28.115Z,18.20
2018-05-27T03:42:54.514Z,18.10
2018-05-27T03:45:20.879Z,18.10
2018-05-27T03:47:47.320Z,18.10
2018-05-27T03:50:13.782Z,18.10
2018-05-27T03:52:40.480Z,18.10
2018-05-27T03:55:06.845Z,18.00
2018-05-27T03:57:33.216Z,18.00
2018-05-27T03:59:59.579Z,17.90
2018-05-27T04:02:25.980Z,18.00
2018-05-27T04:05:10.705Z,18.00
2018-05-27T04:07:55.589Z,18.00
2018-05-27T04:10:22.021Z,18.00
2018-05-27T04:12:48.405Z,18.00
2018-05-27T04:15:15.762Z,17.90
2018-05-27T04:17:42.321Z,18.10
2018-05-27T04:20:08.688Z,17.70
2018-05-27T04:22:35.041Z,18.10
2018-05-27T04:25:02.172Z,18.20
2018-05-27T04:27:28.602Z,18.10
2018-05-27T04:29:54.969Z,18.20
2018-05-27T04:32:21.405Z,18.10
2018-05-27T04:34:47.865Z,18.20
2018-05-27T04:37:14.239Z,18.00
2018-05-27T04:39:40.706Z,18.20
2018-05-27T04:42:07.068Z,18.30
2018-05-27T04:44:33.605Z,18.30
2018-05-27T04:47:00.227Z,18.50
2018-05-27T04:49:26.584Z,18.40
2018-05-27T04:51:53.366Z,18.30
2018-05-27T04:54:19.760Z,18.40
2018-05-27T04:56:47.627Z,18.30
2018-05-27T04:59:14.004Z,18.30
2018-05-27T05:01:40.368Z,18.40
2018-05-27T05:04:06.811Z,18.50
2018-05-27T05:06:33.189Z,18.30
2018-05-27T05:09:00.553Z,18.70
2018-05-27T05:11:26.954Z,18.70
2018-05-27T05:13:53.374Z,18.80
2018-05-27T05:16:19.888Z,18.60
2018-05-27T05:18:46.332Z,18.80
2018-05-27T05:21:12.725Z,18.80
2018-05-27T05:23:39.092Z,18.90
2018-05-27T05:26:05.542Z,19.00
2018-05-27T05:28:31.901Z,19.00
2018-05-27T05:30:58.276Z,19.10
2018-05-27T05:33:24.740Z,19.10
2018-05-27T05:35:52.619Z,19.30
2018-05-27T05:38:18.979Z,19.00
2018-05-27T05:40:46.100Z,19.50
2018-05-27T05:43:12.481Z,19.50
2018-05-27T05:45:38.993Z,19.60
2018-05-27T05:48:06.078Z,19.60
2018-05-27T05:50:32.455Z,19.60
2018-05-27T05:52:59.562Z,19.70
2018-05-27T05:55:25.918Z,19.70
2018-05-27T05:57:52.348Z,19.80
2018-05-27T06:00:18.718Z,19.90
2018-05-27T06:02:45.237Z,19.90
2018-05-27T06:05:12.477Z,20.00
2018-05-27T06:07:38.829Z,19.90
2018-05-27T06:10:06.000Z,20.00
2018-05-27T06:12:32.394Z,20.00
2018-05-27T06:14:59.064Z,19.90
2018-05-27T06:17:25.459Z,20.10
2018-05-27T06:19:52.120Z,20.20
2018-05-27T06:22:19.239Z,20.30
2018-05-27T06:24:45.624Z,20.20
2018-05-27T06:27:11.986Z,20.40
2018-05-27T06:29:38.334Z,20.40
2018-05-27T06:32:04.793Z,20.20
2018-05-27T06:34:31.439Z,20.50
2018-05-27T06:36:58.540Z,20.80
2018-05-27T06:39:25.176Z,20.80
2018-05-27T06:41:51.543Z,20.90
2018-05-27T06:44:18.725Z,21.00
2018-05-27T06:46:45.097Z,20.90
2018-05-27T06:49:11.552Z,21.00
2018-05-27T06:51:37.921Z,21.20
2018-05-27T06:54:04.289Z,21.30
2018-05-27T06:56:30.760Z,21.50
2018-05-27T06:58:57.852Z,21.80
2018-05-27T07:01:24.321Z,21.70
2018-05-27T07:03:50.709Z,21.80
2018-05-27T07:06:17.218Z,22.00
2018-05-27T07:08:43.610Z,22.10
2018-05-27T07:11:10.086Z,22.30
2018-05-27T07:13:37.192Z,22.60
2018-05-27T07:16:03.526Z,22.60
2018-05-27T07:18:29.922Z,22.70
2018-05-27T07:20:56.299Z,22.90
2018-05-27T07:23:22.695Z,23.00
2018-05-27T07:25:49.097Z,23.10
2018-05-27T07:28:15.534Z,23.20
2018-05-27T07:30:41.942Z,23.30
2018-05-27T07:33:09.078Z,23.30
2018-05-27T07:35:36.317Z,23.40
2018-05-27T07:38:02.691Z,23.40
2018-05-27T07:40:29.900Z,23.60
2018-05-27T07:42:56.298Z,23.60
2018-05-27T07:45:22.731Z,23.80
2018-05-27T07:47:49.082Z,23.90
2018-05-27T07:50:15.471Z,24.00
2018-05-27T07:52:42.621Z,24.30
2018-05-27T07:55:09.713Z,24.60
2018-05-27T07:57:36.110Z,24.60
2018-05-27T08:00:02.580Z,24.70
2018-05-27T08:02:29.014Z,24.90
2018-05-27T08:04:55.381Z,25.00
2018-05-27T08:07:29.477Z,25.30
2018-05-27T08:09:55.831Z,25.20
2018-05-27T08:12:22.913Z,25.50
2018-05-27T08:14:49.633Z,25.20
2018-05-27T08:17:16.002Z,25.50
2018-05-27T08:19:42.815Z,25.40
2018-05-27T08:22:09.221Z,25.50
2018-05-27T08:24:36.351Z,25.70
2018-05-27T08:27:02.743Z,25.70
2018-05-27T08:29:29.099Z,25.80
2018-05-27T08:31:55.657Z,25.90
2018-05-27T08:34:22.329Z,26.00
2018-05-27T08:36:48.743Z,26.20
2018-05-27T08:39:15.900Z,26.40
2018-05-27T08:41:43.049Z,26.40
2018-05-27T08:44:10.185Z,26.50
2018-05-27T08:46:37.328Z,26.60
2018-05-27T08:49:03.987Z,26.50
2018-05-27T08:51:31.156Z,26.90
2018-05-27T08:53:57.877Z,26.80
2018-05-27T08:56:25.057Z,26.90
2018-05-27T08:58:51.402Z,26.60
2018-05-27T09:01:17.837Z,26.90
2018-05-27T09:03:44.248Z,26.80
2018-05-27T09:06:10.657Z,26.80
2018-05-27T09:08:37.838Z,27.00
2018-05-27T09:11:04.271Z,27.00
2018-05-27T09:13:30.665Z,27.30
2018-05-27T09:15:57.861Z,27.70
2018-05-27T09:18:24.378Z,27.70
2018-05-27T09:20:50.837Z,27.90
2018-05-27T09:23:17.251Z,27.90
2018-05-27T09:25:43.688Z,27.90
2018-05-27T09:28:10.401Z,28.00
2018-05-27T09:30:36.775Z,28.00
2018-05-27T09:33:03.164Z,28.00
2018-05-27T09:35:29.757Z,28.10
2018-05-27T09:37:56.169Z,28.30
2018-05-27T09:40:22.597Z,28.40
2018-05-27T09:42:48.995Z,28.50
2018-05-27T09:45:15.689Z,28.50
2018-05-27T09:47:42.109Z,28.20
2018-05-27T09:50:08.444Z,28.00
2018-05-27T09:52:34.792Z,27.70
2018-05-27T09:55:02.031Z,27.80
2018-05-27T09:57:28.517Z,27.80
2018-05-27T09:59:55.653Z,27.80
2018-05-27T10:02:22.625Z,27.70
2018-05-27T10:04:49.942Z,28.00
2018-05-27T10:07:17.156Z,28.10
2018-05-27T10:09:43.673Z,28.10
2018-05-27T10:12:10.055Z,28.00
2018-05-27T10:14:36.517Z,27.90
2018-05-27T10:17:04.378Z,28.00
2018-05-27T10:19:31.523Z,28.30
2018-05-27T10:21:58.745Z,28.60
2018-05-27T10:24:25.345Z,28.70
2018-05-27T10:26:51.766Z,28.70
2018-05-27T10:29:18.136Z,28.90
2018-05-27T10:31:44.736Z,29.30
2018-05-27T10:34:11.136Z,29.50
2018-05-27T10:36:37.849Z,29.70
2018-05-27T10:39:05.377Z,29.60
2018-05-27T10:41:32.032Z,29.80
2018-05-27T10:43:58.527Z,30.00
2018-05-27T10:46:24.959Z,30.00
2018-05-27T10:48:51.410Z,30.30
2018-05-27T10:51:18.093Z,30.60
2018-05-27T10:53:44.653Z,31.00
2018-05-27T10:56:12.117Z,31.10
2018-05-27T10:58:39.332Z,31.10
2018-05-27T11:01:05.777Z,31.10
2018-05-27T11:03:32.356Z,31.10
2018-05-27T11:05:58.952Z,31.50
2018-05-27T11:08:25.323Z,31.70
2018-05-27T11:10:51.776Z,31.90
2018-05-27T11:13:18.477Z,31.90
2018-05-27T11:15:45.561Z,31.90
2018-05-27T11:18:11.930Z,31.90
2018-05-27T11:20:38.312Z,32.00
2018-05-27T11:23:04.784Z,32.00
2018-05-27T11:25:31.153Z,31.80
2018-05-27T11:27:58.276Z,32.10
2018-05-27T11:30:24.633Z,32.10
2018-05-27T11:32:51.765Z,31.70
2018-05-27T11:35:18.974Z,31.50
2018-05-27T11:37:45.351Z,31.50
2018-05-27T11:40:11.752Z,30.70
2018-05-27T11:42:38.187Z,30.90
2018-05-27T11:45:04.527Z,30.50
2018-05-27T11:47:30.898Z,30.40
2018-05-27T11:49:58.141Z,30.20
2018-05-27T11:52:25.606Z,30.10
2018-05-27T11:54:52.869Z,30.10
2018-05-27T11:57:19.319Z,30.10
2018-05-27T11:59:45.725Z,30.10
2018-05-27T12:02:12.830Z,29.90
2018-05-27T12:04:39.238Z,29.90
2018-05-27T12:07:05.716Z,29.70
2018-05-27T12:09:32.263Z,29.60
2018-05-27T12:11:58.805Z,29.40
2018-05-27T12:14:26.064Z,29.10
2018-05-27T12:16:52.522Z,29.10
2018-05-27T12:19:19.273Z,29.10
2018-05-27T12:21:45.642Z,28.90
2018-05-27T12:24:12.130Z,28.80
2018-05-27T12:26:39.288Z,28.70
2018-05-27T12:29:05.733Z,28.60
2018-05-27T12:31:32.184Z,28.60
2018-05-27T12:33:58.859Z,28.40
2018-05-27T12:36:26.133Z,28.40
2018-05-27T12:38:52.525Z,28.40
2018-05-27T12:41:19.651Z,28.50
2018-05-27T12:43:46.016Z,28.50
2018-05-27T12:46:13.175Z,28.30
2018-05-27T12:48:39.589Z,28.30
2018-05-27T12:51:06.783Z,28.30
2018-05-27T12:53:33.140Z,28.30
2018-05-27T12:55:59.575Z,28.20
2018-05-27T12:58:26.024Z,28.10
2018-05-27T13:00:52.409Z,28.00
2018-05-27T13:03:18.763Z,27.90
2018-05-27T13:05:45.450Z,27.80
2018-05-27T13:08:12.659Z,27.80
2018-05-27T13:10:39.118Z,27.70
2018-05-27T13:13:06.198Z,27.60
2018-05-27T13:15:32.821Z,27.60
2018-05-27T13:17:59.992Z,27.50
2018-05-27T13:20:26.709Z,27.50
2018-05-27T13:22:53.865Z,27.40
2018-05-27T13:25:20.287Z,27.40
2018-05-27T13:27:46.682Z,27.30
2018-05-27T13:30:13.080Z,27.30
2018-05-27T13:32:39.494Z,27.30
2018-05-27T13:35:06.700Z,27.10
2018-05-27T13:37:33.484Z,27.10
2018-05-27T13:40:00.700Z,26.90
2018-05-27T13:42:27.896Z,26.80
2018-05-27T13:44:54.363Z,26.80
2018-05-27T13:47:20.730Z,26.80
2018-05-27T13:49:47.073Z,26.70
2018-05-27T13:52:14.218Z,26.50
2018-05-27T13:54:41.374Z,26.40
2018-05-27T13:57:08.491Z,26.30
2018-05-27T13:59:34.954Z,26.10
2018-05-27T14:02:02.109Z,26.10
2018-05-27T14:04:29.260Z,26.00
2018-05-27T14:06:56.716Z,25.90
2018-05-27T14:09:23.831Z,25.70
2018-05-27T14:11:50.188Z,25.70
2018-05-27T14:14:17.281Z,25.80
2018-05-27T14:16:43.707Z,25.80
2018-05-27T14:19:10.106Z,25.80
2018-05-27T14:21:37.200Z,25.90
2018-05-27T14:24:03.885Z,25.90
2018-05-27T14:26:31.086Z,26.10
2018-05-27T14:28:57.448Z,26.00
2018-05-27T14:31:23.846Z,26.30
2018-05-27T14:33:50.239Z,26.30
2018-05-27T14:36:17.431Z,26.40
2018-05-27T14:38:43.802Z,26.30
2018-05-27T14:41:10.241Z,26.30
2018-05-27T14:43:36.694Z,26.30
2018-05-27T14:46:03.766Z,26.40
2018-05-27T14:48:30.296Z,26.40
2018-05-27T14:50:56.740Z,25.90
2018-05-27T14:53:23.097Z,26.10
2018-05-27T14:55:49.482Z,26.10
2018-05-27T14:58:15.921Z,25.80
2018-05-27T15:00:42.400Z,26.00
2018-05-27T15:03:09.098Z,26.00
2018-05-27T15:05:35.513Z,26.00
2018-05-27T15:08:02.646Z,25.90
2018-05-27T15:10:29.758Z,25.90
2018-05-27T15:12:56.170Z,25.70
2018-05-27T15:15:22.562Z,25.90
2018-05-27T15:17:49.715Z,26.00
2018-05-27T15:20:16.237Z,26.00
2018-05-27T15:22:42.739Z,26.20
2018-05-27T15:25:09.197Z,26.30
2018-05-27T15:27:35.584Z,26.70
2018-05-27T15:30:02.005Z,27.10
2018-05-27T15:32:28.389Z,27.50
2018-05-27T15:34:54.753Z,27.90
2018-05-27T15:37:21.884Z,28.20
2018-05-27T15:39:48.290Z,28.20
2018-05-27T15:42:15.070Z,28.50
2018-05-27T15:44:42.426Z,29.40
2018-05-27T15:47:08.821Z,29.30
2018-05-27T15:49:35.246Z,29.70
2018-05-27T15:52:01.612Z,29.90
2018-05-27T15:54:28.718Z,29.60
2018-05-27T15:56:55.071Z,29.60
2018-05-27T15:59:21.599Z,29.70
2018-05-27T16:01:48.040Z,30.90
2018-05-27T16:04:14.672Z,30.90
2018-05-27T16:06:41.359Z,30.90
2018-05-27T16:09:07.744Z,31.20
2018-05-27T16:11:34.356Z,31.10
2018-05-27T16:14:01.626Z,31.40
2018-05-27T16:16:28.058Z,31.70
2018-05-27T16:18:54.432Z,31.80
2018-05-27T16:21:21.591Z,31.90
2018-05-27T16:23:48.840Z,31.80
2018-05-27T16:26:15.240Z,31.60
2018-05-27T16:28:41.669Z,31.60
2018-05-27T16:31:08.110Z,31.70
2018-05-27T16:33:35.213Z,31.70
2018-05-27T16:36:01.576Z,31.60
2018-05-27T16:38:28.836Z,31.60
2018-05-27T16:40:55.263Z,30.80
2018-05-27T16:43:22.041Z,30.70
2018-05-27T16:45:56.525Z,30.00
2018-05-27T16:48:22.893Z,30.00
2018-05-27T16:50:50.101Z,29.60
2018-05-27T16:53:16.550Z,29.60
2018-05-27T16:55:43.658Z,29.30
2018-05-27T16:58:10.058Z,29.10
2018-05-27T17:00:37.280Z,28.70
2018-05-27T17:03:03.807Z,28.70
2018-05-27T17:05:30.398Z,28.50
2018-05-27T17:07:56.784Z,28.20
2018-05-27T17:10:23.210Z,28.20
2018-05-27T17:12:49.819Z,28.20
2018-05-27T17:15:16.234Z,28.10
2018-05-27T17:17:42.723Z,28.10
2018-05-27T17:20:09.161Z,28.00
2018-05-27T17:22:35.787Z,28.00
2018-05-27T17:25:02.126Z,27.90
2018-05-27T17:27:28.521Z,27.90
2018-05-27T17:29:55.167Z,27.80
2018-05-27T17:32:21.549Z,27.70
2018-05-27T17:34:48.677Z,27.40
2018-05-27T17:37:15.891Z,27.20
2018-05-27T17:39:42.533Z,27.20
2018-05-27T17:42:08.965Z,27.00
2018-05-27T17:44:35.305Z,26.90
2018-05-27T17:47:01.769Z,26.80
2018-05-27T17:49:28.153Z,27.00
2018-05-27T17:51:54.758Z,26.90
2018-05-27T17:54:22.026Z,26.60
2018-05-27T17:56:48.389Z,26.70
2018-05-27T17:59:14.770Z,26.50
2018-05-27T18:01:41.837Z,26.20
2018-05-27T18:04:08.285Z,26.20
2018-05-27T18:06:34.678Z,26.20
2018-05-27T18:09:01.835Z,26.10
2018-05-27T18:11:28.219Z,26.00
2018-05-27T18:13:54.590Z,26.20
2018-05-27T18:16:22.049Z,26.00
2018-05-27T18:18:49.311Z,26.00
2018-05-27T18:21:15.950Z,26.00
2018-05-27T18:23:42.347Z,26.00
2018-05-27T18:26:09.544Z,25.90
2018-05-27T18:28:35.891Z,25.90
2018-05-27T18:31:02.315Z,25.80
2018-05-27T18:33:28.674Z,25.80
2018-05-27T18:35:55.054Z,25.90
2018-05-27T18:38:22.209Z,25.70
2018-05-27T18:40:48.620Z,25.60
2018-05-27T18:43:15.853Z,25.60
2018-05-27T18:45:42.261Z,25.60
2018-05-27T18:48:08.673Z,25.50
2018-05-27T18:50:35.339Z,25.30
2018-05-27T18:53:01.721Z,25.20
2018-05-27T18:55:29.116Z,24.90
2018-05-27T18:57:55.582Z,24.80
2018-05-27T19:00:22.266Z,24.80
2018-05-27T19:02:48.646Z,24.60
2018-05-27T19:05:15.321Z,24.50
2018-05-27T19:07:42.497Z,24.40
2018-05-27T19:10:09.530Z,24.30
2018-05-27T19:12:36.057Z,24.30
2018-05-27T19:15:02.438Z,24.10
2018-05-27T19:17:28.837Z,23.90
2018-05-27T19:19:55.585Z,24.00
2018-05-27T19:22:21.957Z,23.80
2018-05-27T19:24:48.379Z,23.80
2018-05-27T19:27:14.802Z,23.70
2018-05-27T19:29:41.291Z,22.80
2018-05-27T19:32:07.747Z,23.50
2018-05-27T19:34:34.170Z,23.50
2018-05-27T19:37:00.590Z,23.40
2018-05-27T19:39:27.993Z,23.40
2018-05-27T19:41:54.421Z,23.30
2018-05-27T19:44:20.785Z,23.20
2018-05-27T19:46:47.327Z,23.20
2018-05-27T19:49:14.452Z,23.10
2018-05-27T19:51:41.046Z,22.90
2018-05-27T19:54:07.454Z,23.00
2018-05-27T19:56:34.713Z,22.90
2018-05-27T19:59:02.026Z,22.80
2018-05-27T20:01:28.665Z,22.80
2018-05-27T20:03:55.800Z,22.80
2018-05-27T20:06:22.664Z,22.80
2018-05-27T20:08:49.792Z,22.90
2018-05-27T20:11:16.576Z,22.80
2018-05-27T20:13:43.093Z,22.90
2018-05-27T20:16:10.879Z,22.50
2018-05-27T20:18:39.070Z,22.80
2018-05-27T20:21:05.545Z,22.70
2018-05-27T20:23:33.160Z,22.70
2018-05-27T20:26:00.333Z,22.80
2018-05-27T20:28:26.928Z,22.80
2018-05-27T20:30:53.537Z,22.80
2018-05-27T20:33:19.922Z,22.80
2018-05-27T20:35:46.342Z,22.80
2018-05-27T20:38:13.506Z,22.80
2018-05-27T20:40:39.894Z,22.80
2018-05-27T20:43:07.286Z,22.80
2018-05-27T20:45:33.685Z,22.80
2018-05-27T20:48:00.436Z,22.70
2018-05-27T20:50:27.573Z,22.80
2018-05-27T20:52:54.702Z,22.80
2018-05-27T20:55:22.262Z,22.80
2018-05-27T20:57:48.997Z,22.70
2018-05-27T21:00:15.712Z,22.70
2018-05-27T21:02:42.301Z,22.70
2018-05-27T21:05:08.802Z,22.60
2018-05-27T21:07:35.820Z,22.60
2018-05-27T21:10:02.382Z,22.60
2018-05-27T21:12:30.192Z,22.60
2018-05-27T21:14:57.792Z,22.70
2018-05-27T21:17:24.553Z,22.60
2018-05-27T21:19:56.039Z,22.70
2018-05-27T21:22:23.208Z,22.60
2018-05-27T21:24:50.624Z,22.60
2018-05-27T21:27:19.023Z,22.50
2018-05-27T21:29:46.238Z,22.40
2018-05-27T21:32:12.628Z,22.40
2018-05-27T21:34:39.675Z,22.40
2018-05-27T21:37:06.159Z,22.30
2018-05-27T21:39:32.698Z,22.30
2018-05-27T21:41:59.176Z,22.30
2018-05-27T21:44:25.894Z,22.20
2018-05-27T21:46:53.044Z,22.20
2018-05-27T21:49:20.217Z,22.20
2018-05-27T21:51:46.827Z,22.20
2018-05-27T21:54:13.331Z,22.20
2018-05-27T21:56:39.717Z,22.30
2018-05-27T21:59:07.030Z,22.20
2018-05-27T22:01:33.617Z,22.20
2018-05-27T22:04:00.076Z,22.20
2018-05-27T22:06:26.446Z,22.20
2018-05-27T22:08:53.605Z,22.20
2018-05-27T22:11:20.725Z,22.20
2018-05-27T22:13:47.131Z,22.10
2018-05-27T22:16:13.490Z,22.10
2018-05-27T22:18:41.128Z,22.10
2018-05-27T22:21:07.839Z,22.00
2018-05-27T22:23:34.963Z,21.90
2018-05-27T22:26:01.514Z,21.70
2018-05-27T22:28:28.103Z,21.80
2018-05-27T22:30:54.554Z,21.80
2018-05-27T22:33:20.945Z,21.70
2018-05-27T22:35:47.656Z,21.60
2018-05-27T22:38:14.809Z,21.60
2018-05-27T22:40:41.946Z,21.50
2018-05-27T22:43:09.112Z,21.40
2018-05-27T22:45:35.495Z,21.40
2018-05-27T22:48:01.963Z,21.00
2018-05-27T22:50:29.074Z,21.10
2018-05-27T22:52:55.426Z,21.10
2018-05-27T22:55:21.870Z,21.00
2018-05-27T22:57:48.986Z,20.90
2018-05-27T23:00:15.476Z,20.90
2018-05-27T23:02:41.900Z,20.90
2018-05-27T23:05:11.279Z,20.80
2018-05-27T23:07:39.165Z,20.70
2018-05-27T23:10:07.655Z,20.80
2018-05-27T23:12:36.277Z,20.70
2018-05-27T23:15:03.673Z,20.70
2018-05-27T23:17:31.974Z,20.60
2018-05-27T23:19:58.612Z,20.50
2018-05-27T23:22:25.026Z,20.50
2018-05-27T23:24:52.175Z,20.60
2018-05-27T23:27:19.321Z,20.50
2018-05-27T23:29:46.558Z,20.50
2018-05-27T23:32:13.246Z,20.40
2018-05-27T23:34:39.727Z,20.50
2018-05-27T23:37:06.146Z,20.50
2018-05-27T23:39:32.735Z,20.50
2018-05-27T23:41:59.921Z,20.40
2018-05-27T23:44:26.932Z,20.30
2018-05-27T23:46:53.564Z,20.30
2018-05-27T23:49:20.748Z,20.20
2018-05-27T23:51:47.225Z,20.00
2018-05-27T23:54:13.889Z,20.20
2018-05-27T23:56:40.975Z,20.10
2018-05-27T23:59:07.370Z,20.10
